createdAt,value
2023-03-05T00:01:11.122Z,74.34
2023-03-05T00:03:37.926Z,73.81
2023-03-05T00:06:04.693Z,73.78
2023-03-05T00:08:32.129Z,73.38
2023-03-05T00:11:04.436Z,73.63
2023-03-05T00:13:31.762Z,73.84
2023-03-05T00:15:58.316Z,73.83
2023-03-05T00:18:25.206Z,74.11
2023-03-05T00:20:51.672Z,74.19
2023-03-05T00:23:18.070Z,74.04
2023-03-05T00:25:46.003Z,74.02
2023-03-05T00:28:13.325Z,74.13
2023-03-05T00:30:40.100Z,74.06
2023-03-05T00:33:07.022Z,74.21
2023-03-05T00:35:39.742Z,74.82
2023-03-05T00:38:06.149Z,74.34
2023-03-05T00:40:38.982Z,74.50
2023-03-05T00:43:06.121Z,74.26
2023-03-05T00:45:33.252Z,74.26
2023-03-05T00:48:00.122Z,74.37
2023-03-05T00:50:26.892Z,74.63
2023-03-05T00:52:53.500Z,74.32
2023-03-05T00:55:19.932Z,74.18
2023-03-05T00:57:46.357Z,74.71
2023-03-05T01:00:14.282Z,74.28
2023-03-05T01:02:40.828Z,74.13
2023-03-05T01:05:07.732Z,74.16
2023-03-05T01:07:34.403Z,73.68
2023-03-05T01:10:00.860Z,73.50
2023-03-05T01:12:27.354Z,73.02
2023-03-05T01:14:53.694Z,72.56
2023-03-05T01:17:20.158Z,72.59
2023-03-05T01:19:46.544Z,72.45
2023-03-05T01:22:12.920Z,72.33
2023-03-05T01:24:39.307Z,72.21
2023-03-05T01:27:05.774Z,71.90
2023-03-05T01:29:32.126Z,71.67
2023-03-05T01:31:58.690Z,71.55
2023-03-05T01:34:25.055Z,71.35
2023-03-05T01:36:51.501Z,71.24
2023-03-05T01:39:17.997Z,70.85
2023-03-05T01:41:44.334Z,70.58
2023-03-05T01:44:25.362Z,70.48
2023-03-05T01:46:52.094Z,70.27
2023-03-05T01:49:27.737Z,69.22
2023-03-05T01:52:17.669Z,68.55
2023-03-05T01:54:50.471Z,68.73
2023-03-05T01:57:27.959Z,68.90
2023-03-05T02:00:00.203Z,68.44
2023-03-05T02:02:26.646Z,68.33
2023-03-05T02:04:58.959Z,68.59
2023-03-05T02:07:25.416Z,68.71
2023-03-05T02:09:51.797Z,68.64
2023-03-05T02:12:18.762Z,68.67
2023-03-05T02:14:50.937Z,69.03
2023-03-05T02:17:17.504Z,69.89
2023-03-05T02:19:52.907Z,69.95
2023-03-05T02:22:21.339Z,70.06
2023-03-05T02:24:47.765Z,70.38
2023-03-05T02:27:14.863Z,70.66
2023-03-05T02:29:44.519Z,70.77
2023-03-05T02:32:11.654Z,70.87
2023-03-05T02:34:38.365Z,71.14
2023-03-05T02:37:08.955Z,70.73
2023-03-05T02:39:35.274Z,70.95
2023-03-05T02:42:01.711Z,70.97
2023-03-05T02:44:28.108Z,71.01
2023-03-05T02:46:54.479Z,70.54
2023-03-05T02:49:21.151Z,70.59
2023-03-05T02:51:47.797Z,70.75
2023-03-05T02:54:14.391Z,71.00
2023-03-05T02:56:40.840Z,69.85
2023-03-05T02:59:07.201Z,70.38
2023-03-05T03:01:33.572Z,69.67
2023-03-05T03:04:00.094Z,69.74
2023-03-05T03:06:26.664Z,69.09
2023-03-05T03:08:53.082Z,69.75
2023-03-05T03:11:20.793Z,69.76
2023-03-05T03:13:47.458Z,69.87
2023-03-05T03:16:15.721Z,69.84
2023-03-05T03:18:42.712Z,69.82
2023-03-05T03:21:09.061Z,70.02
2023-03-05T03:23:38.498Z,69.78
2023-03-05T03:26:04.995Z,69.38
2023-03-05T03:28:31.644Z,69.76
2023-03-05T03:30:58.340Z,69.70
2023-03-05T03:33:24.744Z,69.78
2023-03-05T03:35:51.121Z,69.96
2023-03-05T03:38:17.558Z,70.29
2023-03-05T03:40:43.972Z,69.99
2023-03-05T03:43:10.362Z,69.61
2023-03-05T03:45:41.873Z,69.90
2023-03-05T03:48:08.956Z,69.52
2023-03-05T03:50:38.923Z,69.55
2023-03-05T03:53:05.796Z,68.78
2023-03-05T03:55:32.187Z,68.97
2023-03-05T03:57:58.521Z,68.32
2023-03-05T04:00:24.884Z,68.66
2023-03-05T04:02:51.413Z,68.55
2023-03-05T04:05:18.183Z,68.55
2023-03-05T04:07:45.367Z,67.87
2023-03-05T04:10:12.612Z,68.03
2023-03-05T04:12:38.979Z,68.21
2023-03-05T04:15:07.863Z,68.10
2023-03-05T04:17:34.436Z,68.24
2023-03-05T04:20:01.310Z,67.88
2023-03-05T04:22:27.695Z,67.90
2023-03-05T04:24:54.363Z,67.72
2023-03-05T04:27:21.290Z,67.76
2023-03-05T04:29:48.061Z,68.05
2023-03-05T04:32:14.615Z,67.96
2023-03-05T04:34:41.069Z,68.31
2023-03-05T04:37:07.396Z,69.02
2023-03-05T04:39:33.835Z,69.47
2023-03-05T04:42:00.241Z,69.87
2023-03-05T04:44:26.572Z,70.29
2023-03-05T04:46:52.939Z,70.49
2023-03-05T04:49:19.304Z,71.18
2023-03-05T04:51:45.681Z,71.51
2023-03-05T04:54:12.039Z,72.01
2023-03-05T04:56:38.364Z,72.60
2023-03-05T04:59:04.743Z,73.75
2023-03-05T05:01:31.227Z,75.09
2023-03-05T05:03:57.611Z,75.27
2023-03-05T05:06:23.972Z,75.43
2023-03-05T05:08:50.361Z,75.33
2023-03-05T05:11:16.722Z,75.77
2023-03-05T05:13:43.098Z,75.64
2023-03-05T05:16:09.641Z,75.59
2023-03-05T05:18:36.103Z,75.46
2023-03-05T05:21:02.549Z,75.78
2023-03-05T05:23:28.937Z,75.68
2023-03-05T05:25:57.677Z,75.72
2023-03-05T05:28:24.357Z,75.50
2023-03-05T05:30:50.757Z,75.38
2023-03-05T05:33:17.118Z,75.10
2023-03-05T05:35:43.510Z,75.30
2023-03-05T05:38:09.946Z,74.97
2023-03-05T05:40:36.572Z,74.95
2023-03-05T05:43:03.206Z,74.81
2023-03-05T05:45:29.855Z,74.06
2023-03-05T05:47:56.328Z,73.39
2023-03-05T05:50:22.756Z,72.96
2023-03-05T05:52:52.043Z,71.88
2023-03-05T05:55:18.812Z,71.99
2023-03-05T05:57:45.197Z,72.26
2023-03-05T06:00:13.460Z,72.43
2023-03-05T06:02:41.201Z,72.80
2023-03-05T06:05:09.715Z,72.93
2023-03-05T06:07:36.281Z,72.88
2023-03-05T06:10:03.166Z,72.74
2023-03-05T06:12:29.620Z,72.38
2023-03-05T06:14:56.098Z,72.23
2023-03-05T06:17:30.335Z,72.19
2023-03-05T06:19:58.272Z,72.35
2023-03-05T06:22:24.883Z,71.32
2023-03-05T06:24:51.594Z,71.67
2023-03-05T06:27:18.027Z,71.30
2023-03-05T06:29:44.384Z,71.19
2023-03-05T06:32:10.989Z,70.88
2023-03-05T06:34:37.406Z,70.85
2023-03-05T06:37:03.952Z,70.36
2023-03-05T06:39:31.524Z,70.72
2023-03-05T06:41:58.125Z,70.72
2023-03-05T06:44:25.574Z,71.08
2023-03-05T06:46:51.972Z,70.01
2023-03-05T06:49:18.375Z,70.11
2023-03-05T06:51:44.834Z,70.37
2023-03-05T06:54:14.035Z,70.09
2023-03-05T06:56:42.841Z,70.86
2023-03-05T06:59:10.675Z,71.88
2023-03-05T07:01:37.234Z,72.09
2023-03-05T07:04:04.445Z,72.78
2023-03-05T07:06:36.362Z,73.62
2023-03-05T07:09:05.069Z,73.80
2023-03-05T07:11:32.366Z,73.77
2023-03-05T07:13:58.911Z,74.27
2023-03-05T07:16:30.646Z,75.00
2023-03-05T07:18:58.397Z,76.16
2023-03-05T07:21:28.068Z,76.57
2023-03-05T07:23:57.538Z,76.75
2023-03-05T07:26:24.992Z,76.42
2023-03-05T07:28:51.806Z,76.20
2023-03-05T07:31:23.798Z,75.59
2023-03-05T07:33:50.650Z,75.85
2023-03-05T07:36:17.444Z,75.53
2023-03-05T07:38:43.870Z,75.07
2023-03-05T07:41:12.918Z,75.03
2023-03-05T07:43:39.967Z,75.02
2023-03-05T07:46:11.762Z,74.78
2023-03-05T07:48:38.672Z,74.99
2023-03-05T07:51:15.764Z,75.02
2023-03-05T07:53:47.732Z,75.43
2023-03-05T07:56:20.532Z,75.67
2023-03-05T07:58:47.185Z,75.38
2023-03-05T08:01:14.353Z,76.39
2023-03-05T08:03:41.855Z,77.46
2023-03-05T08:06:09.359Z,77.60
2023-03-05T08:08:36.224Z,78.13
2023-03-05T08:11:07.242Z,78.26
2023-03-05T08:13:33.927Z,78.36
2023-03-05T08:16:06.025Z,78.93
2023-03-05T08:18:32.482Z,79.50
2023-03-05T08:20:59.287Z,79.73
2023-03-05T08:23:25.794Z,78.99
2023-03-05T08:25:52.165Z,79.05
2023-03-05T08:28:19.666Z,78.92
2023-03-05T08:30:47.834Z,78.54
2023-03-05T08:33:15.283Z,78.18
2023-03-05T08:35:41.695Z,78.52
2023-03-05T08:38:08.057Z,78.50
2023-03-05T08:40:34.518Z,78.23
2023-03-05T08:43:00.888Z,77.87
2023-03-05T08:45:28.507Z,77.84
2023-03-05T08:47:56.235Z,77.61
2023-03-05T08:50:23.437Z,76.67
2023-03-05T08:52:50.305Z,76.41
2023-03-05T08:55:16.724Z,76.51
2023-03-05T08:57:43.104Z,76.22
2023-03-05T09:00:10.425Z,77.58
2023-03-05T09:02:37.127Z,78.78
2023-03-05T09:05:03.881Z,80.56
2023-03-05T09:07:30.230Z,81.49
2023-03-05T09:09:56.596Z,82.58
2023-03-05T09:12:22.944Z,82.66
2023-03-05T09:14:49.761Z,82.30
2023-03-05T09:17:16.220Z,82.66
2023-03-05T09:19:42.664Z,83.61
2023-03-05T09:22:09.090Z,83.31
2023-03-05T09:24:35.577Z,83.16
2023-03-05T09:27:02.002Z,84.21
2023-03-05T09:29:30.825Z,83.95
2023-03-05T09:31:57.267Z,84.81
2023-03-05T09:34:23.898Z,84.52
2023-03-05T09:36:50.293Z,83.95
2023-03-05T09:39:17.067Z,83.55
2023-03-05T09:42:10.148Z,81.86
2023-03-05T09:45:00.599Z,81.91
2023-03-05T09:47:47.895Z,82.04
2023-03-05T09:50:32.875Z,81.56
2023-03-05T09:53:07.782Z,80.97
2023-03-05T09:55:40.874Z,81.29
2023-03-05T09:58:30.393Z,80.51
2023-03-05T10:01:02.218Z,80.30
2023-03-05T10:03:36.531Z,79.74
2023-03-05T10:06:44.758Z,79.79
2023-03-05T10:09:11.038Z,77.93
2023-03-05T10:11:49.224Z,78.14
2023-03-05T10:14:28.710Z,77.31
2023-03-05T10:17:24.957Z,76.40
2023-03-05T10:20:04.361Z,76.22
2023-03-05T10:22:37.222Z,74.69
2023-03-05T10:25:25.515Z,74.20
2023-03-05T10:27:56.382Z,74.01
2023-03-05T10:30:33.939Z,73.73
2023-03-05T10:33:22.517Z,73.53
2023-03-05T10:36:03.573Z,71.88
2023-03-05T10:38:59.816Z,72.61
2023-03-05T10:41:29.213Z,71.12
2023-03-05T10:44:08.706Z,71.60
2023-03-05T10:46:37.210Z,69.76
2023-03-05T10:49:19.437Z,69.23
2023-03-05T10:51:55.944Z,69.67
2023-03-05T10:54:33.775Z,71.22
2023-03-05T10:57:12.068Z,70.85
2023-03-05T11:00:18.265Z,71.13
2023-03-05T11:03:08.763Z,71.82
2023-03-05T11:05:53.482Z,72.86
2023-03-05T11:08:34.483Z,73.10
2023-03-05T11:11:09.939Z,73.21
2023-03-05T11:13:38.811Z,73.25
2023-03-05T11:16:10.834Z,73.54
2023-03-05T11:18:37.774Z,73.46
2023-03-05T11:21:09.435Z,73.30
2023-03-05T11:23:36.061Z,72.75
2023-03-05T11:26:21.722Z,73.16
2023-03-05T11:28:53.963Z,74.54
2023-03-05T11:31:24.262Z,76.19
2023-03-05T11:34:03.279Z,76.70
2023-03-05T11:36:36.735Z,76.87
2023-03-05T11:39:06.119Z,77.06
2023-03-05T11:41:37.636Z,77.72
2023-03-05T11:44:13.087Z,77.41
2023-03-05T11:46:54.270Z,77.20
2023-03-05T11:49:27.453Z,76.69
2023-03-05T11:52:15.590Z,77.50
2023-03-05T11:55:12.812Z,77.41
2023-03-05T11:58:12.585Z,77.05
2023-03-05T12:00:44.290Z,77.55
2023-03-05T12:03:28.953Z,77.69
2023-03-05T12:06:07.543Z,77.93
2023-03-05T12:08:37.240Z,77.44
2023-03-05T12:11:15.576Z,78.73
2023-03-05T12:13:46.661Z,78.71
2023-03-05T12:16:15.877Z,78.82
2023-03-05T12:18:52.240Z,78.59
2023-03-05T12:21:32.976Z,78.13
2023-03-05T12:24:02.350Z,76.97
2023-03-05T12:26:53.341Z,76.28
2023-03-05T12:29:46.096Z,76.19
2023-03-05T12:32:31.684Z,75.86
2023-03-05T12:35:04.325Z,76.08
2023-03-05T12:37:31.111Z,75.54
2023-03-05T12:40:10.707Z,75.22
2023-03-05T12:43:04.658Z,74.27
2023-03-05T12:45:34.458Z,73.00
2023-03-05T12:48:00.700Z,73.82
2023-03-05T12:50:27.084Z,74.22
2023-03-05T12:52:54.356Z,74.41
2023-03-05T12:55:49.580Z,74.22
2023-03-05T12:58:44.946Z,76.04
2023-03-05T13:01:11.331Z,76.62
2023-03-05T13:03:47.701Z,75.92
2023-03-05T13:06:34.075Z,76.17
2023-03-05T13:09:18.582Z,76.78
2023-03-05T13:11:48.287Z,76.85
2023-03-05T13:14:35.213Z,77.03
2023-03-05T13:17:02.732Z,76.95
2023-03-05T13:19:32.744Z,77.29
2023-03-05T13:22:02.471Z,76.71
2023-03-05T13:24:29.952Z,76.74
2023-03-05T13:26:56.744Z,76.53
2023-03-05T13:29:28.100Z,75.51
2023-03-05T13:31:59.962Z,75.93
2023-03-05T13:34:44.540Z,75.89
2023-03-05T13:37:18.532Z,75.63
2023-03-05T13:39:50.741Z,75.69
2023-03-05T13:42:26.106Z,75.53
2023-03-05T13:45:02.832Z,75.82
2023-03-05T13:47:31.872Z,75.92
2023-03-05T13:50:05.662Z,75.51
2023-03-05T13:52:34.857Z,75.75
2023-03-05T13:55:03.157Z,75.81
2023-03-05T13:57:43.556Z,75.28
2023-03-05T14:00:36.503Z,75.10
2023-03-05T14:03:26.574Z,74.77
2023-03-05T14:05:54.173Z,74.47
2023-03-05T14:08:24.265Z,74.57
2023-03-05T14:10:54.021Z,74.28
2023-03-05T14:13:24.161Z,74.05
2023-03-05T14:16:14.917Z,73.89
2023-03-05T14:18:59.232Z,74.32
2023-03-05T14:21:25.898Z,75.21
2023-03-05T14:23:54.856Z,77.83
2023-03-05T14:26:33.723Z,78.44
2023-03-05T14:29:01.436Z,77.64
2023-03-05T14:31:30.303Z,79.29
2023-03-05T14:34:07.328Z,80.34
2023-03-05T14:36:34.196Z,80.69
2023-03-05T14:39:02.065Z,80.70
2023-03-05T14:41:40.538Z,81.31
2023-03-05T14:44:17.807Z,81.56
2023-03-05T14:46:49.053Z,81.70
2023-03-05T14:49:16.859Z,81.73
2023-03-05T14:51:45.787Z,81.39
2023-03-05T14:54:20.820Z,81.52
2023-03-05T14:56:47.924Z,81.82
2023-03-05T14:59:14.286Z,83.10
2023-03-05T15:01:40.688Z,83.10
2023-03-05T15:04:07.061Z,83.47
2023-03-05T15:06:38.009Z,83.38
2023-03-05T15:09:05.920Z,83.35
2023-03-05T15:11:32.344Z,83.55
2023-03-05T15:13:59.009Z,84.13
2023-03-05T15:16:25.641Z,84.59
2023-03-05T15:18:51.995Z,84.30
2023-03-05T15:21:18.375Z,83.72
2023-03-05T15:23:45.233Z,83.48
2023-03-05T15:26:14.036Z,83.95
2023-03-05T15:28:41.165Z,83.38
2023-03-05T15:31:07.781Z,83.46
2023-03-05T15:33:34.417Z,82.81
2023-03-05T15:36:00.869Z,82.09
2023-03-05T15:38:27.245Z,81.82
2023-03-05T15:40:54.000Z,81.67
2023-03-05T15:43:20.635Z,81.60
2023-03-05T15:45:47.824Z,81.95
2023-03-05T15:48:14.546Z,81.37
2023-03-05T15:50:43.165Z,81.33
2023-03-05T15:53:12.659Z,80.99
2023-03-05T15:55:40.446Z,81.17
2023-03-05T15:58:07.736Z,80.58
2023-03-05T16:00:37.103Z,80.80
2023-03-05T16:03:04.061Z,80.64
2023-03-05T16:05:30.498Z,80.49
2023-03-05T16:07:57.232Z,80.22
2023-03-05T16:10:26.707Z,79.80
2023-03-05T16:12:56.873Z,79.61
2023-03-05T16:15:24.039Z,80.05
2023-03-05T16:17:54.492Z,79.96
2023-03-05T16:20:21.875Z,79.39
2023-03-05T16:22:49.280Z,79.98
2023-03-05T16:25:15.804Z,80.21
2023-03-05T16:27:42.211Z,80.36
2023-03-05T16:30:09.186Z,80.13
2023-03-05T16:32:37.649Z,80.45
2023-03-05T16:35:04.371Z,79.62
2023-03-05T16:37:30.725Z,80.13
2023-03-05T16:39:59.906Z,80.47
2023-03-05T16:42:26.331Z,80.07
2023-03-05T16:44:52.709Z,80.30
2023-03-05T16:47:19.074Z,80.21
2023-03-05T16:49:45.426Z,79.96
2023-03-05T16:52:18.695Z,79.55
2023-03-05T16:54:46.171Z,80.03
2023-03-05T16:57:12.557Z,79.57
2023-03-05T16:59:39.083Z,79.13
2023-03-05T17:02:05.803Z,79.12
2023-03-05T17:04:32.727Z,79.02
2023-03-05T17:06:59.137Z,78.93
2023-03-05T17:09:25.856Z,77.14
2023-03-05T17:11:53.117Z,77.81
2023-03-05T17:14:19.877Z,77.20
2023-03-05T17:16:46.683Z,75.77
2023-03-05T17:19:13.413Z,75.90
2023-03-05T17:21:42.207Z,76.09
2023-03-05T17:24:09.936Z,74.96
2023-03-05T17:26:36.909Z,75.67
2023-03-05T17:29:04.658Z,75.61
2023-03-05T17:31:32.130Z,75.78
2023-03-05T17:33:58.597Z,75.56
2023-03-05T17:36:25.377Z,75.23
2023-03-05T17:38:52.183Z,75.76
2023-03-05T17:41:19.519Z,76.12
2023-03-05T17:43:46.463Z,75.65
2023-03-05T17:46:13.544Z,76.07
2023-03-05T17:48:40.129Z,76.42
2023-03-05T17:51:08.021Z,76.04
2023-03-05T17:53:35.940Z,76.51
2023-03-05T17:56:06.585Z,76.50
2023-03-05T17:58:32.940Z,76.32
2023-03-05T18:01:00.278Z,76.94
2023-03-05T18:03:26.828Z,76.70
2023-03-05T18:05:54.208Z,77.04
2023-03-05T18:08:20.652Z,77.08
2023-03-05T18:10:46.982Z,76.93
2023-03-05T18:13:13.324Z,76.57
2023-03-05T18:15:47.216Z,77.44
2023-03-05T18:18:17.916Z,77.57
2023-03-05T18:20:44.844Z,77.22
2023-03-05T18:23:12.484Z,77.38
2023-03-05T18:25:38.832Z,77.24
2023-03-05T18:28:13.251Z,76.33
2023-03-05T18:30:41.030Z,76.80
2023-03-05T18:33:08.779Z,77.03
2023-03-05T18:35:35.276Z,77.73
2023-03-05T18:38:01.866Z,77.72
2023-03-05T18:40:32.521Z,78.42
2023-03-05T18:43:00.593Z,77.89
2023-03-05T18:45:27.506Z,78.05
2023-03-05T18:47:54.317Z,78.90
2023-03-05T18:50:22.850Z,80.17
2023-03-05T18:52:49.555Z,81.16
2023-03-05T18:55:17.966Z,81.62
2023-03-05T18:57:44.379Z,82.38
2023-03-05T19:00:14.858Z,82.84
2023-03-05T19:02:41.222Z,82.67
2023-03-05T19:05:08.430Z,82.91
2023-03-05T19:07:35.225Z,83.10
2023-03-05T19:10:07.451Z,83.49
2023-03-05T19:12:41.733Z,82.85
2023-03-05T19:15:08.534Z,83.33
2023-03-05T19:17:34.884Z,83.22
2023-03-05T19:20:03.818Z,83.10
2023-03-05T19:22:32.392Z,82.90
2023-03-05T19:24:59.461Z,82.47
2023-03-05T19:27:26.488Z,82.88
2023-03-05T19:29:53.513Z,82.53
2023-03-05T19:32:21.871Z,82.28
2023-03-05T19:34:48.989Z,82.42
2023-03-05T19:37:15.694Z,81.51
2023-03-05T19:39:42.247Z,81.86
2023-03-05T19:42:08.772Z,82.21
2023-03-05T19:44:36.153Z,82.63
2023-03-05T19:47:02.597Z,82.61
2023-03-05T19:49:28.975Z,82.83
2023-03-05T19:51:55.535Z,82.84
2023-03-05T19:54:22.937Z,82.74
2023-03-05T19:56:52.329Z,82.38
2023-03-05T19:59:21.132Z,82.72
2023-03-05T20:01:48.948Z,83.01
2023-03-05T20:04:19.559Z,83.22
2023-03-05T20:06:46.069Z,82.63
2023-03-05T20:09:12.559Z,83.09
2023-03-05T20:11:39.556Z,82.79
2023-03-05T20:14:09.289Z,83.11
2023-03-05T20:16:40.280Z,82.99
2023-03-05T20:19:08.080Z,82.14
2023-03-05T20:21:40.558Z,82.98
2023-03-05T20:24:10.551Z,82.94
2023-03-05T20:26:38.568Z,83.17
2023-03-05T20:29:06.073Z,82.88
2023-03-05T20:31:35.243Z,82.42
2023-03-05T20:34:01.669Z,82.88
2023-03-05T20:36:28.230Z,83.04
2023-03-05T20:38:55.739Z,83.55
2023-03-05T20:41:22.199Z,83.59
2023-03-05T20:43:50.686Z,83.44
2023-03-05T20:46:23.374Z,83.75
2023-03-05T20:48:53.163Z,83.62
2023-03-05T20:51:22.569Z,83.76
2023-03-05T20:53:54.198Z,83.63
2023-03-05T20:56:20.603Z,83.30
2023-03-05T20:58:50.106Z,83.14
2023-03-05T21:01:16.475Z,83.69
2023-03-05T21:03:42.826Z,83.29
2023-03-05T21:06:09.298Z,83.41
2023-03-05T21:08:35.971Z,83.29
2023-03-05T21:11:08.068Z,82.97
2023-03-05T21:13:34.470Z,83.41
2023-03-05T21:16:01.367Z,83.37
2023-03-05T21:18:31.096Z,82.95
2023-03-05T21:20:57.432Z,82.82
2023-03-05T21:23:23.925Z,82.51
2023-03-05T21:25:50.352Z,82.39
2023-03-05T21:28:17.730Z,82.33
2023-03-05T21:30:47.229Z,81.91
2023-03-05T21:33:16.708Z,81.78
2023-03-05T21:35:44.100Z,81.67
2023-03-05T21:38:11.044Z,81.54
2023-03-05T21:40:43.481Z,81.02
2023-03-05T21:43:11.599Z,81.11
2023-03-05T21:45:39.376Z,80.32
2023-03-05T21:48:06.873Z,80.04
2023-03-05T21:50:34.026Z,79.53
2023-03-05T21:53:01.740Z,79.39
2023-03-05T21:55:32.985Z,78.94
2023-03-05T21:58:00.135Z,78.96
2023-03-05T22:00:27.154Z,78.95
2023-03-05T22:02:53.992Z,78.66
2023-03-05T22:05:20.427Z,78.29
2023-03-05T22:07:47.204Z,78.28
2023-03-05T22:10:16.029Z,78.82
2023-03-05T22:13:06.714Z,77.97
2023-03-05T22:15:33.841Z,77.82
2023-03-05T22:18:00.543Z,78.12
2023-03-05T22:20:27.268Z,77.77
2023-03-05T22:22:53.625Z,77.94
2023-03-05T22:25:19.978Z,77.93
2023-03-05T22:27:46.358Z,77.53
2023-03-05T22:30:13.580Z,77.83
2023-03-05T22:32:39.969Z,77.67
2023-03-05T22:35:10.051Z,77.33
2023-03-05T22:37:36.417Z,77.61
2023-03-05T22:40:03.574Z,77.45
2023-03-05T22:42:29.923Z,77.76
2023-03-05T22:44:57.790Z,77.78
2023-03-05T22:47:25.507Z,77.62
2023-03-05T22:49:51.922Z,77.65
2023-03-05T22:52:18.257Z,77.23
2023-03-05T22:54:44.618Z,77.39
2023-03-05T22:57:11.237Z,77.62
2023-03-05T22:59:37.882Z,77.48
2023-03-05T23:02:04.397Z,77.30
2023-03-05T23:04:48.781Z,77.24
2023-03-05T23:07:17.548Z,76.98
2023-03-05T23:09:44.335Z,76.86
2023-03-05T23:12:12.276Z,76.93
2023-03-05T23:14:38.727Z,76.85
2023-03-05T23:17:05.187Z,76.47
2023-03-05T23:19:31.752Z,76.51
2023-03-05T23:21:58.189Z,76.97
2023-03-05T23:24:24.589Z,76.47
2023-03-05T23:26:51.006Z,76.62
2023-03-05T23:29:17.496Z,76.75
2023-03-05T23:31:43.858Z,76.54
2023-03-05T23:34:10.234Z,76.51
2023-03-05T23:36:36.646Z,76.64
2023-03-05T23:39:03.009Z,76.64
2023-03-05T23:41:29.370Z,76.40
2023-03-05T23:43:55.703Z,76.43
2023-03-05T23:46:22.119Z,76.54
2023-03-05T23:48:48.508Z,76.28
2023-03-05T23:51:14.984Z,76.34
2023-03-05T23:53:41.330Z,76.02
2023-03-05T23:56:11.617Z,76.17
2023-03-05T23:58:38.812Z,75.75
